createdAt,value
2022-08-03T00:00:29.247Z,99961.00
2022-08-03T00:02:56.943Z,99964.97
2022-08-03T00:05:24.343Z,99956.84
2022-08-03T00:07:51.712Z,99959.34
2022-08-03T00:10:20.576Z,99959.03
2022-08-03T00:12:47.917Z,99963.09
2022-08-03T00:15:16.388Z,99960.22
2022-08-03T00:17:52.882Z,99966.66
2022-08-03T00:20:22.030Z,99964.66
2022-08-03T00:22:50.036Z,99972.59
2022-08-03T00:25:17.600Z,99978.16
2022-08-03T00:27:45.540Z,99969.75
2022-08-03T00:30:16.854Z,99968.25
2022-08-03T00:32:45.224Z,99971.94
2022-08-03T00:35:28.050Z,99970.06
2022-08-03T00:38:00.590Z,99969.19
2022-08-03T00:40:28.250Z,99971.00
2022-08-03T00:43:00.812Z,99970.13
2022-08-03T00:45:39.385Z,99973.38
2022-08-03T00:48:19.555Z,99965.81
2022-08-03T00:50:56.422Z,99976.03
2022-08-03T00:53:24.368Z,99981.00
2022-08-03T00:55:51.677Z,99979.91
2022-08-03T00:58:19.491Z,99976.19
2022-08-03T01:00:46.885Z,99976.88
2022-08-03T01:03:14.305Z,99974.12
2022-08-03T01:05:53.229Z,99976.91
2022-08-03T01:08:44.848Z,99975.59
2022-08-03T01:11:19.418Z,99970.47
2022-08-03T01:14:17.947Z,99972.53
2022-08-03T01:17:03.488Z,99970.94
2022-08-03T01:19:43.627Z,99977.66
2022-08-03T01:22:17.754Z,99983.94
2022-08-03T01:24:56.987Z,99975.59
2022-08-03T01:27:48.171Z,99981.09
2022-08-03T01:30:15.698Z,99970.34
2022-08-03T01:32:59.326Z,99979.50
2022-08-03T01:35:38.637Z,99980.25
2022-08-03T01:38:15.793Z,99977.94
2022-08-03T01:40:44.852Z,99981.38
2022-08-03T01:44:26.609Z,99983.50
2022-08-03T01:46:04.792Z,99980.88
2022-08-03T01:48:32.709Z,99980.06
2022-08-03T01:51:00.319Z,99974.38
2022-08-03T01:53:27.740Z,99971.47
2022-08-03T01:55:57.554Z,99980.59
2022-08-03T01:58:25.292Z,99975.19
2022-08-03T02:00:53.248Z,99979.03
2022-08-03T02:03:21.445Z,99980.91
2022-08-03T02:05:54.099Z,99983.63
2022-08-03T02:08:33.917Z,99976.19
2022-08-03T02:11:02.351Z,99982.78
2022-08-03T02:13:30.678Z,99978.34
2022-08-03T02:15:58.598Z,99987.34
2022-08-03T02:18:26.016Z,99984.09
2022-08-03T02:20:53.937Z,99986.56
2022-08-03T02:23:21.652Z,99984.91
2022-08-03T02:25:53.358Z,99987.75
2022-08-03T02:36:42.809Z,99993.69
2022-08-03T02:39:12.036Z,99992.91
2022-08-03T02:41:45.812Z,99984.00
2022-08-03T02:44:14.775Z,99990.25
2022-08-03T02:46:45.702Z,99987.59
2022-08-03T02:49:40.898Z,99986.16
2022-08-03T02:52:02.822Z,99980.19
2022-08-03T02:54:30.762Z,99983.50
2022-08-03T02:56:59.005Z,99989.59
2022-08-03T02:59:27.197Z,99996.50
2022-08-03T03:01:55.173Z,99991.56
2022-08-03T03:04:22.776Z,99994.47
2022-08-03T03:06:55.796Z,99990.12
2022-08-03T03:09:23.741Z,99992.81
2022-08-03T03:11:57.010Z,99995.53
2022-08-03T03:14:33.934Z,99981.91
2022-08-03T03:17:02.064Z,99988.28
2022-08-03T03:19:31.022Z,99988.13
2022-08-03T03:22:01.295Z,99991.56
2022-08-03T03:24:29.685Z,99985.78
2022-08-03T03:26:57.779Z,99984.00
2022-08-03T03:29:25.655Z,99983.50
2022-08-03T03:31:53.404Z,99984.59
2022-08-03T03:34:21.031Z,99981.91
2022-08-03T03:36:48.763Z,99993.41
2022-08-03T03:39:16.521Z,99987.31
2022-08-03T03:41:43.998Z,99988.41
2022-08-03T03:44:11.421Z,99985.72
2022-08-03T03:46:39.359Z,99996.50
2022-08-03T03:49:07.422Z,99991.25
2022-08-03T03:51:35.140Z,99991.47
2022-08-03T03:54:06.901Z,99990.16
2022-08-03T03:56:34.245Z,99988.50
2022-08-03T03:59:01.666Z,99990.88
2022-08-03T04:01:29.278Z,99994.47
2022-08-03T04:03:56.898Z,99993.47
2022-08-03T04:06:43.099Z,99995.53
2022-08-03T04:09:29.466Z,99999.66
2022-08-03T04:11:59.501Z,99998.75
2022-08-03T04:14:30.535Z,99999.16
2022-08-03T04:17:06.213Z,100009.44
2022-08-03T04:19:47.541Z,100013.84
2022-08-03T04:22:18.802Z,100010.78
2022-08-03T04:24:49.208Z,100021.38
2022-08-03T04:27:19.086Z,100020.16
2022-08-03T04:29:48.584Z,100028.00
2022-08-03T04:32:17.234Z,100022.34
2022-08-03T04:34:45.115Z,100024.66
2022-08-03T04:37:16.259Z,100023.66
2022-08-03T04:39:44.526Z,100024.84
2022-08-03T04:42:13.751Z,100026.09
2022-08-03T04:44:42.854Z,100033.69
2022-08-03T04:47:10.455Z,100026.53
2022-08-03T04:49:38.441Z,100025.81
2022-08-03T04:52:08.190Z,100027.53
2022-08-03T04:54:45.830Z,100041.78
2022-08-03T04:57:22.320Z,100036.81
2022-08-03T04:59:58.275Z,100051.13
2022-08-03T05:02:28.749Z,100051.75
2022-08-03T05:04:56.096Z,100058.41
2022-08-03T05:07:25.185Z,100047.25
2022-08-03T05:10:01.393Z,100054.84
2022-08-03T05:12:32.901Z,100051.88
2022-08-03T05:15:01.608Z,100054.03
2022-08-03T05:17:29.058Z,100054.56
2022-08-03T05:19:56.495Z,100057.69
2022-08-03T05:22:24.171Z,100064.25
2022-08-03T05:24:51.566Z,100060.19
2022-08-03T05:27:21.477Z,100053.59
2022-08-03T05:29:50.637Z,100067.72
2022-08-03T05:32:18.266Z,100063.81
2022-08-03T05:34:45.840Z,100063.31
2022-08-03T05:37:13.456Z,100065.44
2022-08-03T05:39:40.824Z,100062.78
2022-08-03T05:42:08.158Z,100071.66
2022-08-03T05:44:38.630Z,100068.28
2022-08-03T05:47:06.136Z,100068.47
2022-08-03T05:49:33.658Z,100070.72
2022-08-03T05:52:11.702Z,100067.19
2022-08-03T05:54:55.998Z,100074.75
2022-08-03T05:57:26.005Z,100075.88
2022-08-03T05:59:57.962Z,100075.81
2022-08-03T06:02:27.591Z,100083.00
2022-08-03T06:04:55.192Z,100078.66
2022-08-03T06:07:22.793Z,100071.31
2022-08-03T06:10:36.386Z,100074.09
2022-08-03T06:12:38.873Z,100084.37
2022-08-03T06:15:07.847Z,100085.47
2022-08-03T06:17:51.672Z,100086.84
2022-08-03T06:20:20.032Z,100090.16
2022-08-03T06:22:51.065Z,100081.31
2022-08-03T06:25:27.439Z,100086.44
2022-08-03T06:27:55.024Z,100087.59
2022-08-03T06:30:22.370Z,100086.59
2022-08-03T06:32:51.868Z,100078.34
2022-08-03T06:35:20.207Z,100079.28
2022-08-03T06:37:49.573Z,100085.19
2022-08-03T06:40:21.794Z,100086.81
2022-08-03T06:42:52.122Z,100094.53
2022-08-03T06:45:19.549Z,100092.53
2022-08-03T06:47:46.898Z,100090.50
2022-08-03T06:50:16.919Z,100093.94
2022-08-03T06:52:45.887Z,100088.25
2022-08-03T06:55:13.251Z,100085.91
2022-08-03T06:57:40.843Z,100091.66
2022-08-03T07:00:12.537Z,100093.16
2022-08-03T07:02:40.437Z,100099.06
2022-08-03T07:05:09.107Z,100089.13
2022-08-03T07:07:36.879Z,100092.41
2022-08-03T07:10:05.299Z,100095.75
2022-08-03T07:12:33.839Z,100089.44
2022-08-03T07:15:03.320Z,100090.34
2022-08-03T07:17:33.631Z,100084.25
2022-08-03T07:20:03.109Z,100088.37
2022-08-03T07:22:30.461Z,100090.09
2022-08-03T07:24:58.115Z,100094.06
2022-08-03T07:27:27.080Z,100089.88
2022-08-03T07:29:55.283Z,100094.91
2022-08-03T07:32:23.581Z,100090.41
2022-08-03T07:34:51.408Z,100089.31
2022-08-03T07:37:18.859Z,100089.22
2022-08-03T07:39:46.232Z,100089.56
2022-08-03T07:42:14.516Z,100085.03
2022-08-03T07:44:42.087Z,100079.53
2022-08-03T07:47:09.655Z,100083.31
2022-08-03T07:49:50.228Z,100086.00
2022-08-03T07:52:36.313Z,100092.81
2022-08-03T07:55:06.461Z,100089.06
2022-08-03T07:57:34.365Z,100078.28
2022-08-03T08:00:02.788Z,100091.37
2022-08-03T08:02:40.066Z,100086.25
2022-08-03T08:05:08.197Z,100080.72
2022-08-03T08:07:35.530Z,100082.41
2022-08-03T08:10:04.169Z,100079.84
2022-08-03T08:12:31.767Z,100087.87
2022-08-03T08:14:59.154Z,100080.28
2022-08-03T08:17:27.060Z,100086.88
2022-08-03T08:19:54.740Z,100081.13
2022-08-03T08:22:29.786Z,100080.13
2022-08-03T08:24:59.415Z,100074.19
2022-08-03T08:27:26.900Z,100075.41
2022-08-03T08:29:57.471Z,100079.47
2022-08-03T08:32:28.197Z,100077.25
2022-08-03T08:34:56.886Z,100082.84
2022-08-03T08:37:24.300Z,100079.84
2022-08-03T08:39:51.955Z,100076.75
2022-08-03T08:42:19.427Z,100073.91
2022-08-03T08:44:46.873Z,100076.12
2022-08-03T08:47:15.633Z,100077.06
2022-08-03T08:49:58.199Z,100068.47
2022-08-03T08:52:32.169Z,100070.31
2022-08-03T08:55:00.923Z,100071.56
2022-08-03T08:57:42.918Z,100065.56
2022-08-03T09:00:14.883Z,100067.50
2022-08-03T09:02:43.419Z,100067.84
2022-08-03T09:05:15.328Z,100061.41
2022-08-03T09:07:43.442Z,100057.69
2022-08-03T09:10:13.622Z,100059.97
2022-08-03T09:12:49.900Z,100056.41
2022-08-03T09:15:20.063Z,100047.75
2022-08-03T09:17:51.038Z,100057.13
2022-08-03T09:20:20.089Z,100050.59
2022-08-03T09:22:59.124Z,100054.94
2022-08-03T09:25:29.000Z,100055.06
2022-08-03T09:28:05.137Z,100056.59
2022-08-03T09:30:34.215Z,100051.44
2022-08-03T09:33:08.297Z,100052.81
2022-08-03T09:35:57.491Z,100054.53
2022-08-03T09:38:28.659Z,100042.09
2022-08-03T09:41:00.260Z,100044.69
2022-08-03T09:43:28.692Z,100040.56
2022-08-03T09:46:03.563Z,100043.53
2022-08-03T09:48:34.941Z,100036.97
2022-08-03T09:51:13.453Z,100038.81
2022-08-03T09:54:00.386Z,100041.00
2022-08-03T09:56:39.481Z,100038.31
2022-08-03T09:59:08.571Z,100032.50
2022-08-03T10:01:37.316Z,100028.81
2022-08-03T10:04:05.461Z,100027.25
2022-08-03T10:06:33.000Z,100026.53
2022-08-03T10:09:15.002Z,100026.13
2022-08-03T10:11:43.951Z,100021.97
2022-08-03T10:14:19.223Z,100015.44
2022-08-03T10:16:48.458Z,100015.88
2022-08-03T10:19:16.917Z,100012.47
2022-08-03T10:21:51.187Z,100014.75
2022-08-03T10:24:24.859Z,100008.06
2022-08-03T10:26:54.087Z,100009.16
2022-08-03T10:29:24.888Z,100011.16
2022-08-03T10:31:58.149Z,100002.56
2022-08-03T10:34:27.705Z,99998.91
2022-08-03T10:36:57.513Z,99998.19
2022-08-03T10:39:28.531Z,100003.59
2022-08-03T10:41:58.736Z,99998.66
2022-08-03T10:44:33.381Z,99991.69
2022-08-03T10:47:01.576Z,99996.94
2022-08-03T10:49:34.365Z,99991.78
2022-08-03T10:52:30.343Z,99989.81
2022-08-03T10:55:11.136Z,99988.34
2022-08-03T10:57:59.099Z,99979.13
2022-08-03T11:00:28.271Z,99973.97
2022-08-03T11:03:06.523Z,99979.66
2022-08-03T11:05:49.072Z,99973.03
2022-08-03T11:08:23.797Z,99975.25
2022-08-03T11:10:53.876Z,99974.75
2022-08-03T11:13:23.711Z,99959.94
2022-08-03T11:15:53.922Z,99957.88
2022-08-03T11:21:05.162Z,99954.87
2022-08-03T11:24:03.105Z,99949.41
2022-08-03T11:26:33.730Z,99940.69
2022-08-03T11:29:28.046Z,99943.50
2022-08-03T11:31:55.552Z,99942.50
2022-08-03T11:34:24.401Z,99944.31
2022-08-03T11:37:21.936Z,99946.03
2022-08-03T11:39:51.679Z,99937.50
2022-08-03T11:42:22.061Z,99947.16
2022-08-03T11:45:00.198Z,99932.63
2022-08-03T11:47:29.010Z,99939.56
2022-08-03T11:50:02.023Z,99935.41
2022-08-03T11:52:38.218Z,99937.59
2022-08-03T11:55:10.580Z,99937.09
2022-08-03T11:59:17.035Z,99930.69
2022-08-03T12:00:31.249Z,99934.81
2022-08-03T12:03:11.740Z,99928.41
2022-08-03T12:05:51.797Z,99930.41
2022-08-03T12:08:26.513Z,99922.59
2022-08-03T12:10:56.663Z,99924.87
2022-08-03T12:14:44.067Z,99926.56
2022-08-03T12:16:25.523Z,99920.47
2022-08-03T12:18:58.464Z,99924.31
2022-08-03T12:21:26.314Z,99924.34
2022-08-03T12:24:00.066Z,99931.72
2022-08-03T12:26:29.124Z,99924.63
2022-08-03T12:28:57.753Z,99920.75
2022-08-03T12:31:28.645Z,99919.19
2022-08-03T12:33:58.965Z,99919.78
2022-08-03T12:36:28.750Z,99916.66
2022-08-03T12:38:58.535Z,99912.81
2022-08-03T12:41:35.374Z,99907.56
2022-08-03T12:44:04.772Z,99913.53
2022-08-03T12:46:46.938Z,99908.16
2022-08-03T12:49:18.650Z,99901.00
2022-08-03T12:51:46.031Z,99896.44
2022-08-03T12:54:18.706Z,99896.16
2022-08-03T12:57:10.451Z,99893.81
2022-08-03T12:59:49.872Z,99897.75
2022-08-03T13:02:26.248Z,99891.00
2022-08-03T13:04:54.553Z,99885.28
2022-08-03T13:07:23.001Z,99883.78
2022-08-03T13:09:55.894Z,99883.16
2022-08-03T13:12:27.754Z,99882.75
2022-08-03T13:14:56.758Z,99877.84
2022-08-03T13:17:25.207Z,99872.13
2022-08-03T13:19:53.280Z,99871.97
2022-08-03T13:22:25.631Z,99871.97
2022-08-03T13:24:58.182Z,99866.94
2022-08-03T13:28:03.679Z,99864.87
2022-08-03T13:30:29.809Z,99858.69
2022-08-03T13:33:00.063Z,99861.16
2022-08-03T13:35:27.686Z,99860.62
2022-08-03T13:37:55.049Z,99861.53
2022-08-03T13:40:23.666Z,99855.56
2022-08-03T13:42:57.972Z,99862.16
2022-08-03T13:45:27.674Z,99858.91
2022-08-03T13:48:05.638Z,99860.75
2022-08-03T13:50:39.784Z,99851.41
2022-08-03T13:53:11.923Z,99859.31
2022-08-03T13:55:39.609Z,99858.56
2022-08-03T13:58:09.540Z,99846.28
2022-08-03T14:00:36.917Z,99842.75
2022-08-03T14:03:12.676Z,99845.19
2022-08-03T14:05:42.010Z,99845.66
2022-08-03T14:08:10.217Z,99841.75
2022-08-03T14:10:42.637Z,99830.59
2022-08-03T14:13:11.896Z,99834.75
2022-08-03T14:15:39.290Z,99831.75
2022-08-03T14:18:15.550Z,99832.03
2022-08-03T14:20:48.743Z,99836.16
2022-08-03T14:23:19.255Z,99823.34
2022-08-03T14:25:51.734Z,99829.25
2022-08-03T14:28:22.573Z,99820.06
2022-08-03T14:30:51.841Z,99823.09
2022-08-03T14:33:19.548Z,99820.56
2022-08-03T14:35:47.411Z,99814.56
2022-08-03T14:38:15.092Z,99820.16
2022-08-03T14:40:42.526Z,99817.63
2022-08-03T14:43:09.867Z,99822.84
2022-08-03T14:45:38.218Z,99818.63
2022-08-03T14:50:28.572Z,99821.00
2022-08-03T14:50:55.121Z,99817.91
2022-08-03T14:53:22.736Z,99809.91
2022-08-03T14:55:51.898Z,99811.91
2022-08-03T14:58:22.013Z,99817.56
2022-08-03T15:00:51.435Z,99812.22
2022-08-03T15:03:23.309Z,99808.81
2022-08-03T15:05:52.853Z,99812.78
2022-08-03T15:08:21.307Z,99809.78
2022-08-03T15:10:49.646Z,99805.69
2022-08-03T15:13:17.995Z,99811.37
2022-08-03T15:15:45.796Z,99807.28
2022-08-03T15:18:13.238Z,99811.66
2022-08-03T15:20:45.831Z,99804.00
2022-08-03T15:23:15.041Z,99806.00
2022-08-03T15:26:03.990Z,99803.84
2022-08-03T15:28:34.178Z,99799.19
2022-08-03T15:31:06.144Z,99796.63
2022-08-03T15:33:33.504Z,99800.03
2022-08-03T15:36:03.867Z,99798.31
2022-08-03T15:38:31.561Z,99795.34
2022-08-03T15:40:59.116Z,99790.97
2022-08-03T15:43:26.538Z,99799.75
2022-08-03T15:46:19.495Z,99799.03
2022-08-03T15:48:41.705Z,99798.31
2022-08-03T15:51:09.485Z,99799.88
2022-08-03T15:53:37.527Z,99794.06
2022-08-03T15:56:11.340Z,99793.63
2022-08-03T15:59:03.478Z,99798.59
2022-08-03T16:01:30.343Z,99795.63
2022-08-03T16:03:57.958Z,99798.19
2022-08-03T16:06:35.234Z,99787.97
2022-08-03T16:09:23.118Z,99787.94
2022-08-03T16:11:54.450Z,99787.41
2022-08-03T16:14:32.444Z,99781.72
2022-08-03T16:17:05.521Z,99782.13
2022-08-03T16:19:33.465Z,99776.16
2022-08-03T16:22:00.984Z,99781.59
2022-08-03T16:24:28.477Z,99779.44
2022-08-03T16:26:56.817Z,99783.72
2022-08-03T16:29:24.358Z,99780.72
2022-08-03T16:31:52.648Z,99783.53
2022-08-03T16:34:21.057Z,99778.75
2022-08-03T16:36:48.714Z,99777.88
2022-08-03T16:39:16.389Z,99776.03
2022-08-03T16:41:54.243Z,99779.31
2022-08-03T16:44:30.058Z,99780.16
2022-08-03T16:46:58.734Z,99783.56
2022-08-03T16:49:55.210Z,99780.72
2022-08-03T16:52:13.915Z,99778.31
2022-08-03T16:54:44.608Z,99778.19
2022-08-03T16:57:55.762Z,99792.63
2022-08-03T17:00:11.771Z,99785.06
2022-08-03T17:02:42.879Z,99791.00
2022-08-03T17:05:15.681Z,99787.75
2022-08-03T17:07:50.511Z,99791.00
2022-08-03T17:10:21.910Z,99792.56
2022-08-03T17:12:55.034Z,99800.38
2022-08-03T17:15:38.266Z,99796.50
2022-08-03T17:18:12.883Z,99799.91
2022-08-03T17:20:42.683Z,99797.75
2022-08-03T17:23:33.869Z,99807.50
2022-08-03T17:26:05.203Z,99801.53
2022-08-03T17:28:49.937Z,99801.53
2022-08-03T17:31:23.209Z,99805.06
2022-08-03T17:34:07.024Z,99805.50
2022-08-03T17:37:02.592Z,99804.94
2022-08-03T17:39:48.400Z,99804.94
2022-08-03T17:42:29.506Z,99806.09
2022-08-03T17:45:01.983Z,99810.50
2022-08-03T17:47:42.304Z,99814.59
2022-08-03T17:50:24.322Z,99819.19
2022-08-03T17:52:58.569Z,99813.56
2022-08-03T17:55:56.225Z,99814.03
2022-08-03T17:58:24.839Z,99818.37
2022-08-03T18:02:03.281Z,99822.31
2022-08-03T18:04:10.621Z,99816.25
2022-08-03T18:06:55.509Z,99817.44
2022-08-03T18:10:05.906Z,99818.22
2022-08-03T18:12:25.964Z,99820.31
2022-08-03T18:15:08.406Z,99833.78
2022-08-03T18:17:55.427Z,99830.00
2022-08-03T18:20:33.114Z,99832.59
2022-08-03T18:23:06.852Z,99830.31
2022-08-03T18:25:45.580Z,99833.72
2022-08-03T18:28:18.756Z,99840.13
2022-08-03T18:30:53.924Z,99842.91
2022-08-03T18:34:16.394Z,99842.25
2022-08-03T18:36:17.937Z,99849.66
2022-08-03T18:38:48.021Z,99842.72
2022-08-03T18:41:22.019Z,99855.41
2022-08-03T18:44:08.283Z,99861.59
2022-08-03T18:46:49.184Z,99859.91
2022-08-03T18:49:41.395Z,99862.22
2022-08-03T18:52:18.397Z,99863.19
2022-08-03T18:55:01.061Z,99863.81
2022-08-03T18:57:38.564Z,99866.63
2022-08-03T19:00:14.269Z,99868.22
2022-08-03T19:02:49.256Z,99865.47
2022-08-03T19:05:19.657Z,99869.59
2022-08-03T19:07:58.447Z,99875.78
2022-08-03T19:10:32.135Z,99874.38
2022-08-03T19:13:04.869Z,99876.78
2022-08-03T19:15:41.489Z,99881.91
2022-08-03T19:18:21.074Z,99882.59
2022-08-03T19:20:51.701Z,99893.28
2022-08-03T19:23:25.829Z,99891.19
2022-08-03T19:25:53.790Z,99897.38
2022-08-03T19:28:21.369Z,99897.06
2022-08-03T19:31:00.452Z,99888.81
2022-08-03T19:33:31.376Z,99896.31
2022-08-03T19:36:26.268Z,99893.78
2022-08-03T19:38:55.302Z,99896.28
2022-08-03T19:41:25.237Z,99902.00
2022-08-03T19:43:57.639Z,99898.06
2022-08-03T19:46:30.432Z,99903.53
2022-08-03T19:49:04.480Z,99905.47
2022-08-03T19:52:01.138Z,99907.50
2022-08-03T19:54:32.185Z,99907.19
2022-08-03T19:57:00.355Z,99904.03
2022-08-03T19:59:29.896Z,99907.13
2022-08-03T20:01:58.629Z,99907.66
2022-08-03T20:04:26.347Z,99913.00
2022-08-03T20:06:57.081Z,99906.69
2022-08-03T20:09:24.845Z,99915.91
2022-08-03T20:11:58.874Z,99914.31
2022-08-03T20:14:26.813Z,99911.09
2022-08-03T20:16:54.336Z,99916.19
2022-08-03T20:19:24.186Z,99914.72
2022-08-03T20:22:00.140Z,99914.94
2022-08-03T20:24:29.526Z,99908.19
2022-08-03T20:27:07.959Z,99914.91
2022-08-03T20:30:04.913Z,99913.06
2022-08-03T20:32:29.004Z,99909.78
2022-08-03T20:34:56.793Z,99916.81
2022-08-03T20:37:26.025Z,99917.22
2022-08-03T20:39:54.345Z,99913.81
2022-08-03T20:42:22.647Z,99913.41
2022-08-03T20:45:04.365Z,99915.53
2022-08-03T20:47:35.590Z,99910.91
2022-08-03T20:50:04.319Z,99916.75
2022-08-03T20:52:49.551Z,99914.38
2022-08-03T20:55:18.641Z,99909.37
2022-08-03T20:57:49.306Z,99909.03
2022-08-03T21:00:21.869Z,99903.03
2022-08-03T21:02:49.796Z,99912.72
2022-08-03T21:05:17.241Z,99906.62
2022-08-03T21:08:05.409Z,99908.44
2022-08-03T21:10:37.797Z,99910.78
2022-08-03T21:13:32.102Z,99911.97
2022-08-03T21:16:12.835Z,99914.88
2022-08-03T21:18:48.430Z,99913.16
2022-08-03T21:21:19.827Z,99913.56
2022-08-03T21:23:54.911Z,99917.00
2022-08-03T21:26:24.664Z,99913.75
2022-08-03T21:28:54.339Z,99916.91
2022-08-03T21:31:24.884Z,99924.56
2022-08-03T21:34:00.012Z,99921.31
2022-08-03T21:36:29.988Z,99927.72
2022-08-03T21:38:58.002Z,99922.81
2022-08-03T21:41:27.107Z,99920.62
2022-08-03T21:43:54.755Z,99935.81
2022-08-03T21:46:22.844Z,99934.38
2022-08-03T21:50:05.756Z,99935.72
2022-08-03T21:51:49.069Z,99942.19
2022-08-03T21:54:18.882Z,99946.81
2022-08-03T21:56:47.597Z,99943.91
2022-08-03T21:59:18.031Z,99945.16
2022-08-03T22:01:49.025Z,99941.19
2022-08-03T22:04:50.351Z,99942.59
2022-08-03T22:07:08.049Z,99949.66
2022-08-03T22:09:36.430Z,99947.75
2022-08-03T22:12:04.175Z,99952.50
2022-08-03T22:14:34.439Z,99951.16
2022-08-03T22:17:03.483Z,99956.22
2022-08-03T22:19:34.743Z,99952.31
2022-08-03T22:22:05.997Z,99951.34
2022-08-03T22:24:35.418Z,99947.50
2022-08-03T22:27:22.716Z,99946.16
2022-08-03T22:29:51.656Z,99949.63
2022-08-03T22:32:19.367Z,99948.06
2022-08-03T22:34:47.856Z,99957.19
2022-08-03T22:37:20.313Z,99959.09
2022-08-03T22:39:49.855Z,99959.38
2022-08-03T22:42:17.341Z,99949.00
2022-08-03T22:44:45.140Z,99954.87
2022-08-03T22:47:14.672Z,99956.50
2022-08-03T22:50:31.672Z,99956.97
2022-08-03T22:52:41.879Z,99959.16
2022-08-03T22:55:11.996Z,99952.12
2022-08-03T22:57:56.040Z,99956.50
2022-08-03T23:00:24.576Z,99966.06
2022-08-03T23:02:53.912Z,99958.00
2022-08-03T23:06:01.778Z,99958.66
2022-08-03T23:08:21.677Z,99959.12
2022-08-03T23:10:48.904Z,99956.94
2022-08-03T23:13:19.640Z,99960.75
2022-08-03T23:15:57.241Z,99955.69
2022-08-03T23:18:28.149Z,99958.53
2022-08-03T23:20:59.584Z,99958.91
2022-08-03T23:23:29.603Z,99960.63
2022-08-03T23:26:15.662Z,99960.97
2022-08-03T23:28:47.124Z,99960.88
2022-08-03T23:31:15.535Z,99961.81
2022-08-03T23:33:44.847Z,99962.09
2022-08-03T23:36:30.667Z,99972.56
2022-08-03T23:39:00.940Z,99975.22
2022-08-03T23:41:32.267Z,99968.63
2022-08-03T23:44:01.228Z,99964.69
2022-08-03T23:46:30.348Z,99964.94
2022-08-03T23:48:58.480Z,99969.06
2022-08-03T23:52:04.935Z,99970.97
2022-08-03T23:54:36.984Z,99970.53
2022-08-03T23:57:29.592Z,99972.06
